Time;durP1;ratioP1;P1;durP2;ratioP2;P2;SDS_P1;SDS_P2;PMS_P1;PMS_P2;Temp;Humidity;BMP_temperature;BMP_pressure;BME280_temperature;BME280_humidity;BME280_pressure;Samples;Min_cycle;Max_cycle;Signal;HPM_P1;HPM_P2
2021/09/15 00:02:14;;;;;;;7.60;6.90;;;;;;;14.54;81.62;96742.81;1676692;84;21327;-84
2021/09/15 00:04:40;;;;;;;7.50;6.60;;;;;;;14.54;81.66;96748.05;1696664;83;21022;-83
2021/09/15 00:07:06;;;;;;;8.58;7.60;;;;;;;14.54;81.65;96741.52;1699447;83;21359;-83
2021/09/15 00:09:33;;;;;;;9.08;7.87;;;;;;;14.54;81.78;96736.78;1728894;83;21024;-84
2021/09/15 00:11:59;;;;;;;8.08;7.20;;;;;;;14.52;81.88;96740.10;1722900;83;21050;-84
2021/09/15 00:14:24;;;;;;;9.25;7.28;;;;;;;14.50;81.81;96742.11;1704872;83;21478;-83
2021/09/15 00:16:50;;;;;;;7.03;6.33;;;;;;;14.45;81.76;96734.84;1671656;84;21076;-84
2021/09/15 00:19:16;;;;;;;6.92;6.22;;;;;;;14.45;81.65;96741.38;1695009;83;21104;-83
2021/09/15 00:21:42;;;;;;;7.12;6.42;;;;;;;14.44;81.63;96736.34;1695133;83;21066;-83
2021/09/15 00:24:08;;;;;;;7.15;6.37;;;;;;;14.44;81.78;96741.06;1680207;84;21438;-84
2021/09/15 00:26:33;;;;;;;9.60;7.47;;;;;;;14.45;81.87;96744.48;1689802;84;21047;-83
2021/09/15 00:28:59;;;;;;;9.65;8.68;;;;;;;14.44;81.84;96741.57;1688230;84;21389;-83
2021/09/15 00:31:25;;;;;;;8.30;7.37;;;;;;;14.44;82.07;96744.19;1680557;84;21036;-83
2021/09/15 00:33:51;;;;;;;6.95;6.35;;;;;;;14.44;82.24;96750.72;1686505;84;21354;-83
2021/09/15 00:36:16;;;;;;;8.23;6.40;;;;;;;14.45;82.30;96747.91;1692311;84;21005;-83
2021/09/15 00:38:42;;;;;;;6.60;6.00;;;;;;;14.45;82.22;96745.80;1645128;84;21040;-84
2021/09/15 00:41:08;;;;;;;6.95;5.78;;;;;;;14.44;82.24;96743.69;1680816;84;21463;-84
2021/09/15 00:43:59;;;;;;;7.97;7.17;;;;;;;14.46;82.26;96743.48;1687015;84;21035;-83
2021/09/15 00:46:26;;;;;;;8.65;6.97;;;;;;;14.46;82.28;96742.17;1678404;84;21022;-83
2021/09/15 00:48:52;;;;;;;9.10;7.10;;;;;;;14.45;82.46;96738.76;1675628;84;21489;-84
2021/09/15 00:51:19;;;;;;;8.63;7.33;;;;;;;14.44;82.46;96742.88;1665069;84;21007;-83
2021/09/15 00:53:45;;;;;;;7.40;6.70;;;;;;;14.42;82.39;96739.13;1667021;84;21027;-83
2021/09/15 00:56:11;;;;;;;7.75;6.80;;;;;;;14.41;82.48;96737.02;1659167;84;21429;-83
2021/09/15 00:58:37;;;;;;;7.95;7.15;;;;;;;14.41;82.34;96735.70;1675140;84;20972;-83
2021/09/15 01:01:03;;;;;;;8.18;7.37;;;;;;;14.44;82.20;96745.49;1679658;84;21073;-83
2021/09/15 01:03:28;;;;;;;8.20;7.40;;;;;;;14.41;82.36;96744.86;1671191;84;21102;-83
2021/09/15 01:05:54;;;;;;;8.85;8.03;;;;;;;14.40;82.43;96743.75;1673039;84;21106;-84
2021/09/15 01:08:21;;;;;;;7.37;6.67;;;;;;;14.38;82.66;96749.17;1668472;84;21077;-83
2021/09/15 01:10:47;;;;;;;7.35;6.15;;;;;;;14.37;82.47;96743.64;1679643;84;21433;-83
2021/09/15 01:13:13;;;;;;;7.17;6.30;;;;;;;14.38;82.62;96744.45;1660981;84;20988;-83
2021/09/15 01:15:38;;;;;;;8.05;7.33;;;;;;;14.39;82.58;96740.33;1668268;84;21419;-83
2021/09/15 01:18:15;;;;;;;8.33;7.20;;;;;;;14.38;82.73;96742.64;1676262;84;21056;-83
2021/09/15 01:20:41;;;;;;;8.88;8.05;;;;;;;14.37;82.69;96740.23;1667444;85;21063;-83
2021/09/15 01:23:06;;;;;;;8.03;7.33;;;;;;;14.35;82.64;96742.23;1652035;84;21396;-84
2021/09/15 01:25:32;;;;;;;7.17;6.47;;;;;;;14.32;82.52;96741.33;1697250;84;21050;-83
2021/09/15 01:27:58;;;;;;;8.05;6.78;;;;;;;14.31;82.70;96745.72;1680508;84;21051;-83
2021/09/15 01:30:24;;;;;;;6.25;5.65;;;;;;;14.30;82.81;96742.80;1670215;85;21138;-83
2021/09/15 01:32:49;;;;;;;7.90;7.20;;;;;;;14.29;82.76;96741.19;1688706;84;21046;-83
2021/09/15 01:35:15;;;;;;;7.37;6.67;;;;;;;14.30;82.70;96742.80;1707978;83;21015;-83
2021/09/15 01:37:41;;;;;;;8.10;7.30;;;;;;;14.30;82.71;96741.49;1685134;83;21421;-83
2021/09/15 01:40:08;;;;;;;7.72;6.95;;;;;;;14.28;82.81;96742.19;1645226;84;21062;-83
2021/09/15 01:42:34;;;;;;;7.75;6.55;;;;;;;14.26;82.76;96738.97;1662365;84;21020;-83
2021/09/15 01:44:59;;;;;;;7.90;6.10;;;;;;;14.27;82.82;96731.44;1682056;84;21014;-83
2021/09/15 01:47:26;;;;;;;6.78;5.90;;;;;;;14.30;82.57;96738.07;1677486;83;21432;-83
2021/09/15 01:49:51;;;;;;;7.10;6.42;;;;;;;14.31;82.52;96740.48;1711565;83;21118;-83
2021/09/15 01:52:17;;;;;;;7.40;6.67;;;;;;;14.29;82.52;96734.66;1670012;84;21118;-83
2021/09/15 01:54:44;;;;;;;7.65;6.95;;;;;;;14.27;82.32;96734.55;1701119;83;21022;-83
2021/09/15 01:57:10;;;;;;;7.87;6.42;;;;;;;14.22;82.33;96731.23;1704351;84;21378;-83
2021/09/15 01:59:36;;;;;;;7.22;5.58;;;;;;;14.20;82.28;96733.73;1668733;84;21080;-83
2021/09/15 02:02:02;;;;;;;6.03;5.03;;;;;;;14.15;81.99;96728.27;1673109;84;21062;-83
2021/09/15 02:04:28;;;;;;;6.12;5.55;;;;;;;14.13;81.82;96729.27;1668965;84;21441;-83
2021/09/15 02:06:54;;;;;;;7.47;6.33;;;;;;;14.13;81.56;96728.47;1682011;84;21102;-83
2021/09/15 02:09:22;;;;;;;7.37;6.50;;;;;;;14.11;81.20;96732.58;1678818;84;21069;-83
2021/09/15 02:11:48;;;;;;;6.95;6.17;;;;;;;14.07;81.26;96724.03;1666126;85;21118;-83
2021/09/15 02:14:14;;;;;;;5.60;5.10;;;;;;;14.05;81.21;96727.34;1658751;85;21092;-83
2021/09/15 02:16:40;;;;;;;6.65;4.87;;;;;;;14.05;81.24;96724.73;1680474;84;21097;-83
2021/09/15 02:19:07;;;;;;;6.00;5.42;;;;;;;14.04;80.98;96723.92;1688279;84;21015;-83
2021/09/15 02:21:32;;;;;;;7.10;6.47;;;;;;;14.03;80.82;96722.31;1691803;83;21425;-83
2021/09/15 02:23:58;;;;;;;6.50;5.90;;;;;;;14.01;80.85;96725.63;1713893;83;21010;-83
2021/09/15 02:26:24;;;;;;;6.90;6.20;;;;;;;13.98;81.00;96723.87;1682997;85;21324;-83
2021/09/15 02:28:50;;;;;;;5.87;5.37;;;;;;;13.93;81.21;96719.24;1680887;84;21044;-83
2021/09/15 02:31:17;;;;;;;6.12;5.53;;;;;;;13.92;81.33;96722.86;1676765;84;21080;-83
2021/09/15 02:33:43;;;;;;;7.37;5.45;;;;;;;13.93;81.39;96727.08;1691245;84;21108;-83
2021/09/15 02:36:09;;;;;;;8.50;5.90;;;;;;;13.95;81.50;96729.50;1680909;84;21123;-83
2021/09/15 02:38:34;;;;;;;7.00;6.30;;;;;;;13.94;81.55;96723.47;1706383;84;21006;-83
2021/09/15 02:41:00;;;;;;;6.75;6.15;;;;;;;13.95;81.39;96722.46;1696434;84;21092;-83
2021/09/15 02:43:26;;;;;;;6.85;6.10;;;;;;;13.97;81.57;96725.69;1664497;85;21013;-83
2021/09/15 02:45:52;;;;;;;6.50;5.83;;;;;;;13.97;81.62;96727.49;1698801;84;21012;-83
2021/09/15 02:48:17;;;;;;;6.40;5.30;;;;;;;13.98;81.54;96719.95;1696037;84;21007;-83
2021/09/15 02:50:43;;;;;;;6.42;5.83;;;;;;;13.97;81.39;96720.45;1686048;84;21102;-83
2021/09/15 02:53:09;;;;;;;7.40;6.33;;;;;;;13.99;81.25;96726.33;1677879;84;21048;-83
2021/09/15 02:55:35;;;;;;;8.40;7.15;;;;;;;13.99;81.07;96727.62;1686139;84;21514;-83
2021/09/15 02:58:03;;;;;;;6.65;5.92;;;;;;;13.99;81.05;96725.48;1676833;85;21088;-83
2021/09/15 03:00:29;;;;;;;5.55;4.95;;;;;;;13.96;81.10;96717.55;1696168;83;21608;-83
2021/09/15 03:02:55;;;;;;;5.70;5.10;;;;;;;13.97;81.16;96719.66;1688457;83;21110;-83
2021/09/15 03:05:20;;;;;;;6.75;6.15;;;;;;;13.97;81.25;96724.88;1694286;83;21019;-83
2021/09/15 03:07:47;;;;;;;6.97;6.12;;;;;;;13.96;81.36;96718.05;1688337;83;21384;-84
2021/09/15 03:10:12;;;;;;;7.05;6.30;;;;;;;13.94;81.40;96714.82;1682920;83;21094;-83
2021/09/15 03:12:39;;;;;;;6.35;5.60;;;;;;;13.91;81.10;96720.44;1679062;84;21055;-83
2021/09/15 03:15:06;;;;;;;6.60;5.90;;;;;;;13.88;81.31;96723.45;1666693;84;21033;-83
2021/09/15 03:17:31;;;;;;;5.62;5.12;;;;;;;13.86;81.21;96722.84;1681463;84;21114;-83
2021/09/15 03:19:58;;;;;;;6.05;5.45;;;;;;;13.84;81.34;96721.73;1692444;84;20949;-83
2021/09/15 03:22:24;;;;;;;6.72;6.12;;;;;;;13.81;81.13;96716.87;1721609;83;21004;-83
2021/09/15 03:24:49;;;;;;;7.08;6.47;;;;;;;13.79;81.19;96720.98;1676343;84;21007;-83
2021/09/15 03:27:15;;;;;;;8.05;6.53;;;;;;;13.78;81.39;96719.87;1679015;84;21084;-83
2021/09/15 03:29:41;;;;;;;7.20;6.12;;;;;;;13.74;81.26;96717.34;1689265;84;21369;-83
2021/09/15 03:32:07;;;;;;;6.65;5.37;;;;;;;13.70;81.45;96719.55;1680026;84;21115;-83
2021/09/15 03:34:33;;;;;;;6.33;5.72;;;;;;;13.69;81.63;96716.63;1676497;84;21032;-83
2021/09/15 03:36:58;;;;;;;7.20;5.62;;;;;;;13.69;81.75;96714.52;1683808;84;21571;-83
2021/09/15 03:39:24;;;;;;;7.97;6.35;;;;;;;13.69;81.63;96715.82;1665480;84;21132;-83
2021/09/15 03:41:50;;;;;;;9.65;6.67;;;;;;;13.69;81.72;96718.44;1657322;85;21119;-83
2021/09/15 03:44:16;;;;;;;7.67;6.92;;;;;;;13.67;81.35;96721.73;1668315;85;21100;-83
2021/09/15 03:46:41;;;;;;;7.62;6.03;;;;;;;13.64;81.21;96722.09;1668986;84;21083;-83
2021/09/15 03:49:07;;;;;;;6.05;5.55;;;;;;;13.61;81.27;96725.10;1678895;84;21077;-83
2021/09/15 03:51:33;;;;;;;7.78;5.92;;;;;;;13.62;81.20;96722.30;1679082;84;21192;-83
2021/09/15 03:53:59;;;;;;;6.33;5.72;;;;;;;13.64;81.18;96727.32;1683641;84;21461;-83
2021/09/15 03:56:25;;;;;;;7.15;6.25;;;;;;;13.63;81.18;96721.80;1705448;84;21015;-83
2021/09/15 03:58:51;;;;;;;8.00;7.20;;;;;;;13.62;81.24;96718.38;1664108;85;21195;-83
2021/09/15 04:01:17;;;;;;;7.87;7.08;;;;;;;13.61;81.55;96711.55;1677977;84;21576;-83
2021/09/15 04:03:42;;;;;;;6.67;5.97;;;;;;;13.60;81.58;96713.05;1674530;85;21107;-83
2021/09/15 04:06:08;;;;;;;7.05;5.87;;;;;;;13.58;81.81;96709.83;1685368;84;21158;-83
2021/09/15 04:08:34;;;;;;;6.37;5.65;;;;;;;13.57;81.82;96710.33;1681393;84;21126;-83
2021/09/15 04:10:59;;;;;;;6.55;5.80;;;;;;;13.57;81.92;96708.22;1683685;84;21431;-83
2021/09/15 04:13:26;;;;;;;7.25;6.50;;;;;;;13.60;82.00;96711.24;1679295;84;21103;-83
2021/09/15 04:15:52;;;;;;;7.62;6.92;;;;;;;13.63;81.92;96708.23;1686866;84;21162;-83
2021/09/15 04:18:18;;;;;;;7.50;6.37;;;;;;;13.65;81.91;96698.91;1680936;84;21612;-83
2021/09/15 04:20:44;;;;;;;8.08;6.85;;;;;;;13.64;81.84;96698.09;1667775;85;20991;-83
2021/09/15 04:23:14;;;;;;;7.70;5.92;;;;;;;13.64;81.70;96694.19;1676100;84;21104;-83
2021/09/15 04:31:15;;;;;;;7.50;6.70;;;;;;;13.65;81.63;96689.27;1699376;83;21167;-83
2021/09/15 04:33:38;;;;;;;7.70;7.00;;;;;;;13.67;81.93;96689.91;1700829;83;21068;-83
2021/09/15 04:36:04;;;;;;;8.65;7.78;;;;;;;13.69;82.23;96693.13;1699238;83;21087;-83
2021/09/15 04:38:29;;;;;;;7.47;6.78;;;;;;;13.71;82.20;96693.73;1697757;84;21075;-83
2021/09/15 04:40:55;;;;;;;6.10;5.50;;;;;;;13.75;82.37;96691.03;1684475;84;21483;-83
2021/09/15 04:43:21;;;;;;;6.20;5.60;;;;;;;13.79;82.13;96690.95;1679273;84;21077;-83
2021/09/15 04:45:46;;;;;;;6.17;5.58;;;;;;;13.82;82.13;96693.16;1677894;84;21094;-83
2021/09/15 04:48:12;;;;;;;6.80;6.15;;;;;;;13.84;82.04;96690.39;1658181;85;21075;-83
2021/09/15 04:50:38;;;;;;;8.03;6.25;;;;;;;13.86;82.06;96689.69;1671576;84;21138;-83
2021/09/15 04:53:04;;;;;;;7.58;6.50;;;;;;;13.89;82.09;96697.12;1682931;84;21198;-83
2021/09/15 04:55:32;;;;;;;7.40;6.70;;;;;;;13.91;82.12;96699.55;1678237;85;21075;-83
2021/09/15 04:57:58;;;;;;;6.30;5.70;;;;;;;13.94;82.19;96696.54;1662625;84;21091;-83
2021/09/15 05:00:24;;;;;;;5.35;4.85;;;;;;;13.98;82.22;96697.75;1689207;84;21147;-83
2021/09/15 05:02:51;;;;;;;5.87;5.28;;;;;;;14.00;82.25;96701.00;1671238;84;21045;-83
2021/09/15 05:05:16;;;;;;;5.95;5.45;;;;;;;14.02;82.33;96698.50;1672722;85;21034;-83
2021/09/15 05:07:42;;;;;;;7.12;6.42;;;;;;;14.03;82.27;96695.38;1692008;84;21023;-83
2021/09/15 05:10:09;;;;;;;7.53;6.00;;;;;;;14.02;82.42;96695.08;1675096;84;20972;-83
2021/09/15 05:12:36;;;;;;;6.60;5.92;;;;;;;14.01;82.59;96686.44;1689264;84;21088;-83
2021/09/15 05:15:01;;;;;;;5.85;5.35;;;;;;;14.02;82.79;96696.38;1683210;84;21500;-83
2021/09/15 05:17:27;;;;;;;7.05;5.70;;;;;;;14.04;82.93;96695.19;1674938;84;21142;-83
2021/09/15 05:19:53;;;;;;;5.28;4.78;;;;;;;14.06;82.91;96697.09;1689110;84;21087;-83
2021/09/15 05:22:19;;;;;;;6.97;5.40;;;;;;;14.09;82.90;96698.00;1693091;84;21055;-83
2021/09/15 05:24:45;;;;;;;6.70;6.03;;;;;;;14.12;83.02;96695.50;1691274;84;21036;-83
2021/09/15 05:27:10;;;;;;;6.80;6.10;;;;;;;14.16;83.07;96692.82;1681619;84;21043;-83
2021/09/15 05:29:36;;;;;;;7.03;6.28;;;;;;;14.19;83.30;96697.65;1668935;85;21055;-83
2021/09/15 05:32:03;;;;;;;5.78;5.25;;;;;;;14.22;83.58;96696.45;1662364;85;21354;-83
2021/09/15 05:34:28;;;;;;;6.15;5.55;;;;;;;14.24;83.81;96693.13;1665315;85;21095;-83
2021/09/15 05:36:54;;;;;;;6.45;5.55;;;;;;;14.26;84.00;96691.92;1688473;84;21162;-83
2021/09/15 05:39:20;;;;;;;6.80;5.40;;;;;;;14.32;84.07;96695.58;1683698;85;21146;-83
2021/09/15 05:41:45;;;;;;;6.10;5.50;;;;;;;14.35;84.18;96695.98;1657101;85;21389;-83
2021/09/15 05:44:11;;;;;;;5.97;5.03;;;;;;;14.39;84.25;96700.31;1667291;85;21018;-83
2021/09/15 05:46:37;;;;;;;6.95;6.15;;;;;;;14.42;84.28;96691.56;1666273;85;21066;-83
2021/09/15 05:49:03;;;;;;;6.50;5.60;;;;;;;14.47;84.29;96684.95;1674041;83;21359;-83
2021/09/15 05:51:30;;;;;;;6.90;6.22;;;;;;;14.49;84.33;96682.48;1671147;85;21045;-83
2021/09/15 05:53:56;;;;;;;7.75;6.10;;;;;;;14.51;84.44;96685.69;1690570;84;21051;-83
2021/09/15 05:56:21;;;;;;;6.65;5.40;;;;;;;14.55;84.52;96676.44;1710790;83;21442;-83
2021/09/15 05:58:47;;;;;;;7.10;5.47;;;;;;;14.57;84.38;96675.73;1697737;84;21016;-83
2021/09/15 06:01:13;;;;;;;6.30;5.70;;;;;;;14.61;84.32;96678.25;1684408;84;21017;-83
2021/09/15 06:03:39;;;;;;;5.90;4.62;;;;;;;14.65;84.28;96678.67;1690543;84;21120;-83
2021/09/15 06:06:05;;;;;;;6.40;5.80;;;;;;;14.68;84.27;96676.97;1674597;84;21487;-83
2021/09/15 06:08:30;;;;;;;6.28;5.67;;;;;;;14.71;84.31;96664.28;1719861;83;20995;-83
2021/09/15 06:10:56;;;;;;;7.00;6.30;;;;;;;14.74;84.51;96667.00;1672435;84;21061;-83
2021/09/15 06:13:22;;;;;;;6.45;5.85;;;;;;;14.78;84.62;96668.70;1657449;84;21003;-83
2021/09/15 06:15:49;;;;;;;5.60;5.10;;;;;;;14.81;84.62;96670.44;1705553;83;21037;-83
2021/09/15 06:18:14;;;;;;;6.22;5.62;;;;;;;14.85;84.63;96672.95;1691989;84;20984;-83
2021/09/15 06:20:40;;;;;;;6.55;5.95;;;;;;;14.92;84.56;96676.36;1712775;83;21120;-83
2021/09/15 06:23:07;;;;;;;5.35;4.85;;;;;;;14.98;84.58;96666.91;1680761;83;21071;-83
2021/09/15 06:25:32;;;;;;;6.25;5.65;;;;;;;15.02;84.57;96666.80;1703466;83;21394;-83
2021/09/15 06:27:58;;;;;;;8.43;6.17;;;;;;;15.05;84.44;96664.28;1695163;84;20987;-83
2021/09/15 06:30:24;;;;;;;7.75;6.20;;;;;;;15.08;84.47;96665.98;1697692;83;21124;-83
2021/09/15 06:32:50;;;;;;;6.80;6.15;;;;;;;15.13;84.76;96668.82;1698283;83;21064;-84
2021/09/15 06:35:16;;;;;;;6.30;5.70;;;;;;;15.17;84.67;96671.33;1682585;84;21086;-83
2021/09/15 06:37:41;;;;;;;6.28;5.67;;;;;;;15.19;84.65;96664.06;1668195;84;21048;-83
2021/09/15 06:40:08;;;;;;;7.50;5.80;;;;;;;15.23;84.87;96663.16;1675474;84;21031;-83
2021/09/15 06:42:34;;;;;;;6.10;5.50;;;;;;;15.25;84.82;96662.44;1684661;84;21125;-83
2021/09/15 06:45:00;;;;;;;6.05;5.35;;;;;;;15.30;84.92;96653.49;1684840;84;21033;-83
2021/09/15 06:47:26;;;;;;;7.50;6.55;;;;;;;15.34;84.83;96652.57;1671660;84;21474;-83
2021/09/15 06:49:52;;;;;;;7.60;6.90;;;;;;;15.39;84.78;96654.86;1663880;86;21084;-83
2021/09/15 06:52:18;;;;;;;7.28;6.58;;;;;;;15.44;85.00;96656.36;1689974;84;21035;-83
2021/09/15 06:54:49;;;;;;;6.58;5.95;;;;;;;15.47;84.88;96660.41;1699574;83;21409;-83
2021/09/15 06:57:14;;;;;;;5.95;5.45;;;;;;;15.50;85.02;96667.84;1674720;84;21495;-83
2021/09/15 06:59:40;;;;;;;5.95;5.17;;;;;;;15.58;85.05;96667.09;1713894;83;21016;-83
2021/09/15 07:02:06;;;;;;;5.72;5.22;;;;;;;15.65;84.85;96663.20;1683194;84;21016;-83
2021/09/15 07:04:31;;;;;;;5.90;5.40;;;;;;;15.69;84.79;96663.08;1714261;83;21036;-83
2021/09/15 07:06:57;;;;;;;6.45;5.85;;;;;;;15.77;84.40;96672.51;1710328;83;21053;-83
2021/09/15 07:09:23;;;;;;;7.97;6.85;;;;;;;15.79;84.34;96664.77;1713128;82;21062;-83
2021/09/15 07:11:49;;;;;;;6.42;5.83;;;;;;;15.81;84.57;96664.05;1719378;83;21045;-83
2021/09/15 07:14:14;;;;;;;7.05;5.90;;;;;;;15.85;84.72;96667.86;1687362;82;21053;-83
2021/09/15 07:16:40;;;;;;;5.80;5.30;;;;;;;15.94;84.53;96671.03;1691839;84;21035;-83
2021/09/15 07:19:06;;;;;;;6.62;5.65;;;;;;;16.01;84.40;96673.13;1673894;84;21387;-83
2021/09/15 07:21:32;;;;;;;7.08;6.37;;;;;;;16.06;84.29;96668.06;1692876;84;20979;-83
2021/09/15 07:23:58;;;;;;;7.45;6.75;;;;;;;16.12;84.22;96665.94;1663975;85;21505;-83
2021/09/15 07:26:23;;;;;;;7.70;7.00;;;;;;;16.16;84.30;96665.80;1678767;84;20963;-83
2021/09/15 07:28:49;;;;;;;6.95;6.25;;;;;;;16.21;84.57;96663.86;1671549;84;22187;-83
2021/09/15 07:31:15;;;;;;;6.53;5.87;;;;;;;16.26;84.58;96662.70;1662517;85;21071;-83
2021/09/15 07:33:41;;;;;;;5.87;5.30;;;;;;;16.32;84.54;96661.08;1661132;85;21412;-83
2021/09/15 07:36:08;;;;;;;6.53;5.92;;;;;;;16.36;84.55;96663.06;1674448;85;21012;-84
2021/09/15 07:38:34;;;;;;;5.92;5.33;;;;;;;16.45;84.60;96661.02;1672023;85;21490;-83
2021/09/15 07:41:00;;;;;;;7.70;6.97;;;;;;;16.55;84.37;96665.77;1667309;84;21463;-83
2021/09/15 07:43:27;;;;;;;7.67;6.97;;;;;;;16.61;84.36;96663.13;1668609;85;21158;-84
2021/09/15 07:45:52;;;;;;;7.95;7.15;;;;;;;16.68;84.40;96663.90;1661539;85;21503;-83
2021/09/15 07:48:18;;;;;;;7.53;6.83;;;;;;;16.74;84.54;96660.41;1673219;84;21065;-84
2021/09/15 07:50:44;;;;;;;7.78;6.05;;;;;;;16.76;84.31;96657.60;1669495;85;21077;-83
2021/09/15 07:53:10;;;;;;;5.95;5.35;;;;;;;16.85;83.91;96659.44;1679003;84;21072;-84
2021/09/15 07:55:37;;;;;;;7.00;6.30;;;;;;;16.91;83.80;96666.44;1682061;84;21021;-83
2021/09/15 07:58:03;;;;;;;7.33;6.55;;;;;;;16.99;83.70;96670.92;1683261;84;21051;-84
2021/09/15 08:00:29;;;;;;;11.55;10.10;;;;;;;17.07;83.94;96670.64;1674633;84;21093;-84
2021/09/15 08:02:55;;;;;;;11.48;10.28;;;;;;;17.14;84.25;96660.09;1708315;83;21026;-83
2021/09/15 08:05:21;;;;;;;8.48;7.08;;;;;;;17.27;84.22;96669.17;1673786;84;21002;-84
2021/09/15 08:07:47;;;;;;;7.97;6.35;;;;;;;17.43;84.07;96672.26;1667794;84;21358;-84
2021/09/15 08:10:13;;;;;;;8.05;7.15;;;;;;;17.53;84.05;96671.23;1673895;84;21051;-83
2021/09/15 08:12:38;;;;;;;8.35;7.35;;;;;;;17.59;84.29;96675.12;1666420;84;21346;-83
2021/09/15 08:15:05;;;;;;;11.83;9.30;;;;;;;17.68;84.19;96676.45;1686815;84;21028;-84
2021/09/15 08:17:32;;;;;;;8.83;7.92;;;;;;;17.76;84.09;96673.25;1670133;84;21112;-83
2021/09/15 08:19:58;;;;;;;9.28;8.20;;;;;;;17.86;84.32;96680.09;1662039;86;21029;-83
2021/09/15 08:22:23;;;;;;;10.03;7.60;;;;;;;17.92;84.36;96676.09;1692389;84;21356;-83
2021/09/15 08:24:49;;;;;;;7.50;6.70;;;;;;;17.99;84.26;96676.80;1677300;84;21067;-83
2021/09/15 08:27:15;;;;;;;12.80;10.45;;;;;;;18.09;83.99;96673.66;1666537;84;21005;-83
2021/09/15 08:29:41;;;;;;;15.18;12.05;;;;;;;18.22;83.39;96675.29;1694499;84;21011;-83
2021/09/15 08:32:07;;;;;;;13.72;10.80;;;;;;;18.36;82.79;96676.72;1663310;84;21019;-84
2021/09/15 08:34:34;;;;;;;10.43;9.23;;;;;;;18.49;82.98;96674.43;1663656;84;21351;-84
2021/09/15 08:37:00;;;;;;;16.37;10.18;;;;;;;18.59;83.34;96670.75;1675754;85;21068;-84
2021/09/15 08:39:26;;;;;;;11.05;9.30;;;;;;;18.67;83.13;96675.70;1680882;84;21043;-84
2021/09/15 08:41:53;;;;;;;11.22;9.08;;;;;;;18.76;82.65;96673.56;1679516;84;21020;-83
2021/09/15 08:44:20;;;;;;;12.75;11.33;;;;;;;18.84;82.91;96670.59;1679268;84;21422;-84
2021/09/15 08:46:46;;;;;;;13.30;9.60;;;;;;;18.91;82.39;96669.98;1653210;84;21046;-84
2021/09/15 08:49:12;;;;;;;12.23;11.03;;;;;;;18.95;82.74;96663.75;1691746;84;21419;-83
2021/09/15 08:51:37;;;;;;;13.50;12.20;;;;;;;19.00;82.35;96659.39;1665838;84;21098;-84
2021/09/15 08:54:04;;;;;;;13.03;11.60;;;;;;;19.08;82.12;96654.31;1671926;84;21136;-84
2021/09/15 08:56:30;;;;;;;15.10;11.53;;;;;;;19.15;80.79;96651.05;1679284;84;21448;-84
2021/09/15 08:58:56;;;;;;;11.90;10.45;;;;;;;19.30;80.70;96656.66;1682451;84;21128;-84
2021/09/15 09:01:24;;;;;;;11.93;10.63;;;;;;;19.42;80.23;96651.39;1693570;83;21035;-84
2021/09/15 09:03:54;;;;;;;12.20;10.58;;;;;;;19.54;81.00;96650.89;1700000;83;21061;-84
2021/09/15 09:06:25;;;;;;;11.90;10.68;;;;;;;19.57;81.23;96651.75;1678744;84;21080;-84
2021/09/15 09:09:00;;;;;;;13.43;10.53;;;;;;;19.62;80.85;96652.36;1679528;84;21051;-84
2021/09/15 09:11:30;;;;;;;10.70;9.70;;;;;;;19.68;80.96;96648.27;1682250;84;21008;-84
2021/09/15 09:14:04;;;;;;;13.45;10.80;;;;;;;19.73;80.40;96647.08;1680682;84;21754;-84
2021/09/15 09:16:48;;;;;;;14.30;10.78;;;;;;;19.83;80.30;96649.09;1696236;84;21022;-84
2021/09/15 09:19:17;;;;;;;11.35;10.15;;;;;;;19.92;80.89;96647.70;1685129;84;21130;-84
2021/09/15 09:21:49;;;;;;;10.45;9.40;;;;;;;20.03;79.76;96648.72;1669691;84;21773;-84
2021/09/15 09:24:19;;;;;;;10.23;8.78;;;;;;;20.11;79.11;96644.38;1684648;84;21152;-84
2021/09/15 09:26:58;;;;;;;11.18;8.55;;;;;;;20.20;78.55;96647.45;1675873;84;21091;-84
2021/09/15 09:29:29;;;;;;;10.82;9.60;;;;;;;20.26;77.71;96640.70;1690710;84;21026;-84
2021/09/15 09:32:05;;;;;;;10.60;9.55;;;;;;;20.34;78.00;96637.69;1688506;84;21085;-84
2021/09/15 09:34:42;;;;;;;13.98;9.55;;;;;;;20.41;78.05;96639.37;1684869;84;21437;-84
2021/09/15 09:37:20;;;;;;;9.63;8.70;;;;;;;20.46;76.24;96635.00;1707566;84;21027;-84
2021/09/15 09:39:55;;;;;;;10.60;9.60;;;;;;;20.53;76.11;96642.79;1687616;84;21094;-84
2021/09/15 09:42:28;;;;;;;11.03;9.93;;;;;;;20.60;76.56;96634.19;1676408;85;21069;-84
2021/09/15 09:45:08;;;;;;;10.13;8.40;;;;;;;20.65;75.82;96628.98;1686040;83;21023;-84
2021/09/15 09:47:35;;;;;;;10.58;9.38;;;;;;;20.74;75.31;96632.84;1691446;83;21097;-84
2021/09/15 09:50:11;;;;;;;9.90;8.80;;;;;;;20.79;76.92;96628.95;1696229;84;21015;-84
2021/09/15 09:52:58;;;;;;;9.48;8.48;;;;;;;20.80;77.15;96629.75;1718864;83;21040;-84
2021/09/15 09:55:24;;;;;;;9.08;8.18;;;;;;;20.82;76.24;96634.27;1719120;83;21026;-84
2021/09/15 09:57:53;;;;;;;10.40;8.00;;;;;;;20.89;76.94;96633.08;1706967;83;21010;-84
2021/09/15 10:00:21;;;;;;;8.55;7.75;;;;;;;20.95;75.44;96633.42;1684325;84;21127;-84
2021/09/15 10:02:47;;;;;;;10.15;8.83;;;;;;;21.01;76.98;96633.00;1679145;84;21095;-84
2021/09/15 10:05:19;;;;;;;9.93;8.43;;;;;;;21.06;77.19;96626.98;1674091;84;21366;-84
2021/09/15 10:07:45;;;;;;;;;;;;;;;21.13;77.14;96621.80;1681079;83;21123;-84
2021/09/15 10:10:13;;;;;;;11.00;8.75;;;;;;;21.15;76.67;96618.42;1670373;84;20109;-84
2021/09/15 10:12:39;;;;;;;8.85;7.95;;;;;;;21.15;76.61;96622.88;1680684;84;21120;-84
2021/09/15 10:15:10;;;;;;;9.75;8.38;;;;;;;21.19;76.31;96627.45;1668582;84;21082;-84
2021/09/15 10:17:43;;;;;;;8.65;7.75;;;;;;;21.21;74.03;96625.89;1678598;84;21040;-84
2021/09/15 10:20:10;;;;;;;11.05;8.93;;;;;;;21.32;74.57;96625.55;1670727;84;21079;-84
2021/09/15 10:22:41;;;;;;;8.50;7.35;;;;;;;21.40;74.61;96624.59;1690568;84;20987;-84
2021/09/15 10:25:06;;;;;;;8.48;7.67;;;;;;;21.46;71.66;96622.28;1661435;84;21042;-84
2021/09/15 10:27:57;;;;;;;9.20;8.05;;;;;;;21.58;71.36;96624.30;1670804;85;20992;-84
2021/09/15 10:30:22;;;;;;;10.23;7.58;;;;;;;21.70;70.88;96620.22;1671040;84;21160;-84
2021/09/15 10:32:50;;;;;;;8.08;7.33;;;;;;;21.81;71.27;96610.58;1652469;85;21130;-84
2021/09/15 10:35:46;;;;;;;7.70;6.50;;;;;;;21.90;70.06;96611.72;1680827;84;21050;-84
2021/09/15 10:38:14;;;;;;;7.45;6.42;;;;;;;22.01;69.30;96608.67;1707045;83;21027;-84
2021/09/15 10:40:40;;;;;;;8.88;8.00;;;;;;;22.12;69.02;96612.52;1686695;84;21039;-84
2021/09/15 10:43:41;;;;;;;8.40;7.60;;;;;;;22.15;70.60;96605.95;1681274;84;21023;-84
2021/09/15 10:46:23;;;;;;;7.92;7.12;;;;;;;22.14;71.45;96603.03;1683111;84;21051;-84
2021/09/15 10:49:27;;;;;;;7.95;7.00;;;;;;;22.16;69.89;96604.89;1680806;84;21410;-84
2021/09/15 10:52:10;;;;;;;8.55;6.90;;;;;;;22.19;71.37;96603.59;1667454;85;21095;-84
2021/09/15 10:54:47;;;;;;;8.93;7.70;;;;;;;22.21;70.62;96605.46;1693565;84;21413;-84
2021/09/15 10:57:17;;;;;;;7.58;6.83;;;;;;;22.25;70.15;96603.91;1702711;84;21350;-84
2021/09/15 10:59:55;;;;;;;8.23;7.42;;;;;;;22.27;69.28;96609.74;1695417;83;21136;-84
2021/09/15 11:02:29;;;;;;;8.20;7.37;;;;;;;22.32;69.15;96605.84;1669415;84;21054;-84
2021/09/15 11:04:56;;;;;;;8.73;7.83;;;;;;;22.32;69.37;96611.14;1699513;83;21006;-84
2021/09/15 11:07:51;;;;;;;7.35;6.67;;;;;;;22.35;70.89;96602.16;1700769;83;21050;-84
2021/09/15 11:10:39;;;;;;;7.78;6.97;;;;;;;22.38;69.82;96600.34;1704106;83;21012;-84
2021/09/15 11:13:12;;;;;;;8.58;7.70;;;;;;;22.45;69.72;96588.20;1692904;84;20989;-84
2021/09/15 11:15:48;;;;;;;7.47;6.70;;;;;;;22.54;70.52;96589.35;1670560;84;21083;-85
2021/09/15 11:18:25;;;;;;;7.67;6.75;;;;;;;22.60;69.80;96583.03;1661115;85;21046;-84
2021/09/15 11:21:05;;;;;;;7.50;6.90;;;;;;;22.56;69.87;96587.25;1691951;83;21007;-84
2021/09/15 11:23:30;;;;;;;9.68;7.00;;;;;;;22.54;70.38;96577.96;1708224;83;20985;-84
2021/09/15 11:25:57;;;;;;;7.95;7.25;;;;;;;22.51;70.08;96575.83;1701080;83;21019;-84
2021/09/15 11:28:23;;;;;;;7.97;7.17;;;;;;;22.35;70.20;96577.55;1696556;84;21093;-84
2021/09/15 11:30:59;;;;;;;7.90;7.17;;;;;;;22.35;71.48;96574.38;1665542;84;21435;-84
2021/09/15 11:33:36;;;;;;;8.10;6.92;;;;;;;22.46;72.06;96569.97;1695170;84;21158;-84
2021/09/15 11:36:06;;;;;;;7.30;6.25;;;;;;;22.56;69.86;96564.73;1675539;84;21398;-84
2021/09/15 11:38:35;;;;;;;7.80;7.00;;;;;;;22.67;71.15;96559.00;1662345;85;21422;-84
2021/09/15 11:41:13;;;;;;;11.57;7.20;;;;;;;22.73;70.77;96551.36;1681203;84;21399;-84